createdAt,value
2019-02-05T00:00:40.546Z,3.40
2019-02-05T00:04:44.055Z,3.40
2019-02-05T00:08:47.573Z,3.40
2019-02-05T00:12:50.988Z,3.40
2019-02-05T00:16:54.433Z,3.40
2019-02-05T00:20:57.935Z,3.40
2019-02-05T00:25:01.409Z,3.40
2019-02-05T00:29:04.968Z,3.40
2019-02-05T00:33:08.980Z,3.50
2019-02-05T00:37:12.432Z,3.40
2019-02-05T00:41:16.250Z,3.40
2019-02-05T00:45:20.431Z,3.50
2019-02-05T00:49:23.856Z,3.50
2019-02-05T00:53:27.335Z,3.60
2019-02-05T00:57:30.836Z,3.60
2019-02-05T01:01:34.427Z,3.60
2019-02-05T01:05:37.841Z,3.60
2019-02-05T01:09:41.293Z,3.70
2019-02-05T01:13:44.760Z,3.70
2019-02-05T01:17:48.741Z,3.60
2019-02-05T01:21:52.167Z,3.60
2019-02-05T01:25:56.273Z,3.60
2019-02-05T01:29:59.727Z,3.70
2019-02-05T01:34:03.257Z,3.60
2019-02-05T01:38:06.710Z,3.60
2019-02-05T01:42:10.195Z,3.60
2019-02-05T01:46:13.620Z,3.60
2019-02-05T01:50:22.476Z,3.60
2019-02-05T01:54:25.929Z,3.60
2019-02-05T01:58:29.360Z,3.50
2019-02-05T02:02:32.808Z,3.40
2019-02-05T02:06:36.296Z,3.30
2019-02-05T02:10:40.317Z,3.30
2019-02-05T02:14:43.744Z,3.20
2019-02-05T02:18:47.512Z,3.20
2019-02-05T02:22:50.978Z,3.10
2019-02-05T02:26:54.477Z,3.10
2019-02-05T02:30:57.924Z,3.00
2019-02-05T02:35:01.413Z,2.90
2019-02-05T02:39:06.879Z,2.90
2019-02-05T02:43:10.302Z,2.70
2019-02-05T02:47:13.741Z,2.60
2019-02-05T02:51:17.176Z,2.50
2019-02-05T02:55:20.680Z,2.50
2019-02-05T02:59:24.194Z,2.40
2019-02-05T03:03:27.612Z,2.40
2019-02-05T03:07:31.052Z,2.30
2019-02-05T03:11:34.496Z,2.30
2019-02-05T03:15:38.005Z,2.30
2019-02-05T03:19:41.524Z,2.20
2019-02-05T03:23:44.961Z,2.20
2019-02-05T03:27:48.876Z,2.10
2019-02-05T03:31:52.388Z,2.10
2019-02-05T03:35:55.905Z,2.00
2019-02-05T03:39:59.396Z,1.90
2019-02-05T03:44:02.837Z,2.00
2019-02-05T03:48:07.017Z,1.90
2019-02-05T03:52:12.656Z,1.80
2019-02-05T03:56:33.728Z,1.80
2019-02-05T04:00:43.103Z,1.80
2019-02-05T04:05:01.532Z,1.70
2019-02-05T04:09:19.740Z,1.70
2019-02-05T04:13:34.958Z,1.60
2019-02-05T04:17:53.425Z,1.60
2019-02-05T04:22:02.663Z,1.70
2019-02-05T04:26:27.116Z,1.60
2019-02-05T04:30:33.619Z,1.60
2019-02-05T04:35:07.395Z,1.60
2019-02-05T04:39:19.802Z,1.60
2019-02-05T04:43:41.208Z,1.60
2019-02-05T04:48:02.817Z,1.50
2019-02-05T04:52:42.860Z,1.50
2019-02-05T04:56:52.640Z,1.40
2019-02-05T05:01:13.902Z,1.40
2019-02-05T05:05:37.745Z,1.40
2019-02-05T05:09:58.472Z,1.40
2019-02-05T05:14:01.953Z,1.40
2019-02-05T05:18:05.516Z,1.30
2019-02-05T05:22:09.082Z,1.30
2019-02-05T05:26:12.897Z,1.30
2019-02-05T05:30:17.757Z,1.30
2019-02-05T05:34:21.288Z,1.30
2019-02-05T05:38:24.897Z,1.30
2019-02-05T05:42:28.463Z,1.20
2019-02-05T05:46:31.909Z,1.20
2019-02-05T05:50:35.416Z,1.20
2019-02-05T05:54:38.984Z,1.20
2019-02-05T05:58:42.434Z,1.20
2019-02-05T06:02:45.932Z,1.10
2019-02-05T06:06:49.440Z,1.00
2019-02-05T06:10:52.884Z,1.10
2019-02-05T06:14:56.408Z,1.10
2019-02-05T06:18:59.915Z,1.10
2019-02-05T06:23:03.344Z,1.10
2019-02-05T06:27:06.852Z,1.10
2019-02-05T06:31:10.297Z,1.10
2019-02-05T06:35:13.865Z,1.10
2019-02-05T06:39:17.295Z,1.00
2019-02-05T06:43:20.738Z,1.00
2019-02-05T06:47:24.176Z,1.00
2019-02-05T06:51:27.686Z,0.90
2019-02-05T06:55:31.194Z,1.00
2019-02-05T06:59:34.699Z,1.00
2019-02-05T07:03:38.124Z,1.10
2019-02-05T07:07:41.624Z,1.10
2019-02-05T07:11:45.604Z,1.10
2019-02-05T07:15:49.044Z,1.20
2019-02-05T07:19:53.259Z,1.20
2019-02-05T07:23:56.703Z,1.30
2019-02-05T07:28:00.323Z,1.20
2019-02-05T07:32:04.513Z,1.20
2019-02-05T07:36:08.461Z,1.30
2019-02-05T07:40:15.403Z,1.40
2019-02-05T07:44:18.950Z,1.40
2019-02-05T07:48:22.469Z,1.50
2019-02-05T07:52:25.977Z,1.50
2019-02-05T07:56:29.496Z,1.50
2019-02-05T08:00:32.937Z,1.50
2019-02-05T08:04:36.481Z,1.60
2019-02-05T08:08:40.091Z,1.70
2019-02-05T08:12:43.977Z,1.70
2019-02-05T08:16:48.097Z,1.80
2019-02-05T08:20:51.896Z,1.90
2019-02-05T08:24:56.384Z,2.10
2019-02-05T08:28:59.892Z,2.20
2019-02-05T08:33:04.148Z,2.40
2019-02-05T08:37:07.648Z,2.60
2019-02-05T08:41:11.528Z,2.80
2019-02-05T08:45:38.519Z,2.90
2019-02-05T08:49:42.016Z,3.10
2019-02-05T08:53:45.456Z,3.20
2019-02-05T08:57:50.429Z,3.30
2019-02-05T09:01:53.925Z,3.50
2019-02-05T09:05:57.397Z,3.50
2019-02-05T09:10:00.833Z,3.60
2019-02-05T09:14:10.711Z,3.80
2019-02-05T09:18:11.205Z,3.90
2019-02-05T09:22:14.712Z,4.10
2019-02-05T09:26:18.540Z,4.20
2019-02-05T09:30:27.676Z,4.30
2019-02-05T09:34:31.163Z,4.40
2019-02-05T09:38:34.664Z,4.50
2019-02-05T09:42:38.185Z,4.50
2019-02-05T09:46:41.692Z,4.60
2019-02-05T09:50:45.336Z,4.70
2019-02-05T09:54:48.781Z,4.70
2019-02-05T09:58:52.299Z,4.80
2019-02-05T10:02:56.156Z,4.80
2019-02-05T10:06:59.698Z,4.90
2019-02-05T10:11:03.277Z,5.10
2019-02-05T10:15:09.865Z,5.10
2019-02-05T10:19:13.380Z,5.20
2019-02-05T10:23:16.811Z,5.20
2019-02-05T10:27:20.349Z,5.30
2019-02-05T10:31:23.856Z,5.40
2019-02-05T10:35:27.349Z,5.50
2019-02-05T10:39:30.856Z,5.50
2019-02-05T10:43:34.356Z,5.60
2019-02-05T10:47:39.334Z,5.70
2019-02-05T10:51:42.889Z,5.80
2019-02-05T10:55:46.432Z,6.00
2019-02-05T10:59:49.937Z,6.10
2019-02-05T11:03:53.372Z,6.30
2019-02-05T11:07:56.809Z,6.50
2019-02-05T11:12:00.313Z,6.60
2019-02-05T11:16:04.297Z,6.70
2019-02-05T11:20:14.038Z,6.80
2019-02-05T11:24:17.769Z,6.90
2019-02-05T11:28:21.279Z,6.90
2019-02-05T11:32:24.769Z,7.00
2019-02-05T11:36:28.276Z,7.00
2019-02-05T11:40:37.288Z,7.30
2019-02-05T11:44:40.800Z,7.40
2019-02-05T11:48:45.069Z,7.40
2019-02-05T11:52:48.700Z,7.40
2019-02-05T11:56:52.217Z,7.50
2019-02-05T12:00:57.364Z,7.60
2019-02-05T12:05:00.887Z,7.70
2019-02-05T12:09:07.388Z,7.90
2019-02-05T12:13:10.805Z,8.10
2019-02-05T12:17:14.248Z,8.30
2019-02-05T12:21:17.808Z,8.20
2019-02-05T12:25:22.907Z,8.20
2019-02-05T12:29:26.433Z,8.20
2019-02-05T12:33:29.869Z,8.30
2019-02-05T12:37:33.641Z,8.50
2019-02-05T12:41:37.095Z,8.60
2019-02-05T12:45:40.729Z,8.90
2019-02-05T12:49:44.188Z,8.90
2019-02-05T12:53:47.684Z,9.00
2019-02-05T12:57:51.484Z,9.00
2019-02-05T13:01:54.997Z,9.00
2019-02-05T13:05:58.443Z,9.00
2019-02-05T13:10:01.887Z,9.00
2019-02-05T13:14:06.028Z,8.90
2019-02-05T13:18:09.936Z,8.90
2019-02-05T13:22:13.753Z,8.90
2019-02-05T13:26:17.189Z,8.90
2019-02-05T13:30:23.054Z,8.80
2019-02-05T13:34:26.536Z,8.70
2019-02-05T13:38:29.981Z,8.60
2019-02-05T13:42:33.425Z,8.50
2019-02-05T13:46:36.865Z,8.40
2019-02-05T13:50:40.359Z,8.60
2019-02-05T13:54:43.917Z,8.70
2019-02-05T13:58:47.394Z,8.70
2019-02-05T14:02:50.917Z,8.60
2019-02-05T14:06:54.365Z,8.50
2019-02-05T14:10:58.082Z,8.30
2019-02-05T14:15:01.896Z,8.30
2019-02-05T14:19:05.618Z,8.50
2019-02-05T14:23:09.868Z,8.60
2019-02-05T14:27:13.320Z,8.60
2019-02-05T14:31:16.916Z,8.70
2019-02-05T14:35:20.355Z,8.60
2019-02-05T14:39:23.791Z,8.50
2019-02-05T14:43:27.240Z,8.50
2019-02-05T14:47:30.656Z,8.50
2019-02-05T14:51:34.093Z,8.50
2019-02-05T14:55:37.529Z,8.40
2019-02-05T14:59:41.070Z,8.40
2019-02-05T15:03:44.488Z,8.40
2019-02-05T15:07:47.908Z,8.30
2019-02-05T15:11:51.423Z,8.30
2019-02-05T15:15:54.933Z,8.20
2019-02-05T15:19:58.395Z,8.10
2019-02-05T15:24:02.472Z,8.20
2019-02-05T15:28:06.805Z,8.10
2019-02-05T15:32:11.889Z,8.00
2019-02-05T15:36:17.305Z,7.90
2019-02-05T15:40:20.808Z,7.90
2019-02-05T15:44:24.249Z,7.90
2019-02-05T15:48:27.667Z,7.80
2019-02-05T15:52:31.126Z,7.70
2019-02-05T15:56:34.640Z,7.70
2019-02-05T16:00:38.073Z,7.70
2019-02-05T16:04:41.523Z,7.60
2019-02-05T16:08:45.325Z,7.60
2019-02-05T16:12:51.494Z,7.60
2019-02-05T16:16:54.962Z,7.50
2019-02-05T16:20:58.440Z,7.50
2019-02-05T16:25:02.361Z,7.40
2019-02-05T16:29:05.865Z,7.40
2019-02-05T16:33:09.303Z,7.40
2019-02-05T16:37:12.750Z,7.40
2019-02-05T16:41:16.253Z,7.40
2019-02-05T16:45:25.134Z,7.40
2019-02-05T16:49:28.657Z,7.30
2019-02-05T16:53:32.190Z,7.30
2019-02-05T16:57:35.679Z,7.30
2019-02-05T17:01:39.788Z,7.20
2019-02-05T17:05:43.461Z,7.20
2019-02-05T17:09:47.511Z,7.10
2019-02-05T17:13:51.000Z,7.00
2019-02-05T17:17:55.479Z,7.00
2019-02-05T17:21:58.959Z,7.00
2019-02-05T17:26:02.401Z,7.00
2019-02-05T17:30:15.067Z,7.00
2019-02-05T17:34:18.504Z,6.90
2019-02-05T17:38:21.948Z,6.90
2019-02-05T17:42:32.999Z,6.80
2019-02-05T17:46:36.452Z,6.80
2019-02-05T17:50:39.955Z,6.60
2019-02-05T17:54:43.586Z,6.50
2019-02-05T17:58:47.070Z,6.40
2019-02-05T18:02:54.921Z,6.20
2019-02-05T18:06:58.441Z,6.20
2019-02-05T18:11:01.905Z,6.10
2019-02-05T18:15:08.717Z,6.00
2019-02-05T18:19:12.160Z,5.90
2019-02-05T18:23:16.051Z,5.80
2019-02-05T18:27:19.476Z,5.70
2019-02-05T18:31:23.102Z,5.50
2019-02-05T18:35:27.894Z,5.40
2019-02-05T18:39:31.624Z,5.30
2019-02-05T18:43:35.200Z,5.20
2019-02-05T18:47:38.633Z,5.10
2019-02-05T18:51:42.073Z,5.00
2019-02-05T18:55:46.960Z,4.90
2019-02-05T18:59:50.391Z,4.90
2019-02-05T19:03:53.838Z,4.80
2019-02-05T19:07:57.336Z,4.70
2019-02-05T19:12:04.173Z,4.60
2019-02-05T19:16:06.031Z,4.50
2019-02-05T19:20:11.112Z,4.40
2019-02-05T19:24:16.769Z,4.20
2019-02-05T19:28:24.937Z,3.90
2019-02-05T19:32:28.731Z,3.80
2019-02-05T19:36:32.176Z,3.80
2019-02-05T19:40:35.620Z,3.60
2019-02-05T19:44:40.788Z,3.50
2019-02-05T19:48:49.215Z,3.60
2019-02-05T19:52:52.964Z,3.50
2019-02-05T19:56:56.398Z,3.50
2019-02-05T20:01:00.256Z,3.40
2019-02-05T20:05:05.221Z,3.30
2019-02-05T20:09:13.149Z,3.10
2019-02-05T20:13:16.592Z,3.00
2019-02-05T20:17:20.024Z,3.10
2019-02-05T20:21:23.457Z,3.10
2019-02-05T20:25:27.182Z,3.00
2019-02-05T20:29:30.708Z,3.10
2019-02-05T20:33:34.147Z,3.00
2019-02-05T20:37:37.588Z,2.90
2019-02-05T20:41:41.547Z,2.80
2019-02-05T20:45:45.024Z,2.80
2019-02-05T20:49:49.045Z,2.80
2019-02-05T20:53:52.999Z,2.80
2019-02-05T20:57:56.921Z,2.80
2019-02-05T21:02:00.372Z,2.80
2019-02-05T21:06:06.793Z,2.80
2019-02-05T21:10:19.205Z,2.80
2019-02-05T21:14:22.683Z,2.70
2019-02-05T21:18:26.404Z,2.70
2019-02-05T21:22:29.843Z,2.60
2019-02-05T21:26:33.380Z,2.50
2019-02-05T21:30:37.022Z,2.50
2019-02-05T21:34:40.457Z,2.40
2019-02-05T21:38:45.570Z,2.40
2019-02-05T21:42:49.279Z,2.40
2019-02-05T21:46:52.792Z,2.50
2019-02-05T21:50:56.238Z,2.40
2019-02-05T21:54:59.754Z,2.40
2019-02-05T21:59:03.266Z,2.30
2019-02-05T22:03:07.304Z,2.30
2019-02-05T22:07:10.824Z,2.30
2019-02-05T22:11:14.252Z,2.30
2019-02-05T22:15:19.516Z,2.30
2019-02-05T22:19:23.037Z,2.30
2019-02-05T22:23:26.455Z,2.20
2019-02-05T22:27:29.911Z,2.20
2019-02-05T22:31:33.422Z,2.20
2019-02-05T22:35:37.115Z,2.20
2019-02-05T22:39:40.626Z,2.10
2019-02-05T22:43:44.137Z,2.10
2019-02-05T22:47:47.656Z,2.10
2019-02-05T22:51:51.489Z,2.10
2019-02-05T22:55:54.989Z,2.00
2019-02-05T22:59:58.713Z,2.00
2019-02-05T23:04:05.726Z,2.00
2019-02-05T23:08:10.072Z,2.00
2019-02-05T23:12:25.791Z,2.00
2019-02-05T23:16:29.291Z,1.90
2019-02-05T23:20:32.856Z,1.80
2019-02-05T23:24:36.301Z,1.80
2019-02-05T23:28:39.816Z,1.80
2019-02-05T23:32:43.257Z,1.70
2019-02-05T23:36:46.697Z,1.80
2019-02-05T23:40:50.116Z,1.80
2019-02-05T23:44:53.647Z,1.70
2019-02-05T23:48:57.083Z,1.70
2019-02-05T23:53:00.593Z,1.70
2019-02-05T23:57:04.093Z,1.70
